Dallas, Texas
Traffic Map
Current Weather Conditions
Dallas, Texas
Overcast
Overcast

Feels Like: 6°
Wind Chill: Ceiling: 2500
Heat Index: Visibility: 10mi
Dew Point: -3° Wind: 15mph
Humidity: 44% Direction: 160° (SSE)
Pressure: 30.31in Gusts: 0mph
Raw Report DataKDAL 101953Z 16013KT 10SM BKN025 OVC045 09/M03 A3031 RMK AO2 SLP264 T00891028
Traffic Incident Summary
Active as of:
Severity:
Category:
InformationThere was an issue retrieving the traffic information for this location. Please try a different location or try again shortly.
Advertisements
Track Severe Weather on mobile